ADDS METAR Data INFO
IDs: Format: Raw Decoded Include TAF

Data at: 0749 UTC 17 Oct 2017

KSVH 170725Z AUTO 32003KT 10SM CLR 06/04 A3027 RMK AO2 T00570042
KSVH 170705Z AUTO 34003KT 10SM CLR 07/05 A3027 RMK AO2 T00680051
KSVH 170645Z AUTO 00000KT 10SM CLR 07/04 A3027 RMK AO2 T00740040
KSVH 170625Z AUTO 31003KT 10SM CLR 08/04 A3027 RMK AO2 T00760038
KSVH 170605Z AUTO 00000KT 10SM CLR 08/04 A3027 RMK AO2 T00760039
KSVH 170545Z AUTO 00000KT 10SM CLR 08/03 A3027 RMK AO2 T00820026
KSVH 170525Z AUTO 33003KT 10SM CLR 08/03 A3027 RMK AO2 T00790032
KSVH 170505Z AUTO 00000KT 10SM CLR 08/04 A3026 RMK AO2 T00830035
KSVH 170445Z AUTO 34003KT 10SM CLR 08/04 A3027 RMK AO2 T00840036
KSVH 170425Z AUTO 34003KT 10SM CLR 07/05 A3027 RMK AO2 T00730053
KSVH 170405Z AUTO 00000KT 10SM CLR 09/02 A3027 RMK AO2 T00920022
KSVH 170345Z AUTO 34003KT 10SM CLR 10/03 A3027 RMK AO2 T00950025
KSVH 170325Z AUTO 34003KT 10SM CLR 10/03 A3027 RMK AO2 T00950029
KSVH 170305Z AUTO 35004KT 10SM CLR 10/03 A3026 RMK AO2 T00980026
KSVH 170245Z AUTO 35003KT 10SM CLR 10/03 A3026 RMK AO2 T01000025
KSVH 170225Z AUTO 00000KT 10SM CLR 09/06 A3026 RMK AO2 T00860058
KSVH 170205Z AUTO 36003KT 10SM CLR 11/02 A3025 RMK AO2 T01060022
KSVH 170145Z AUTO 00000KT 10SM CLR 11/02 A3024 RMK AO2 T01100020
KSVH 170125Z AUTO 35004KT 10SM CLR 11/02 A3024 RMK AO2 T01130018
KSVH 170105Z AUTO 35006KT 10SM CLR 12/02 A3022 RMK AO2 T01150019
KSVH 170045Z AUTO 35005KT 10SM CLR 12/02 A3022 RMK AO2 T01170020
KSVH 170025Z AUTO 36004KT 10SM CLR 13/02 A3021 RMK AO2 T01250016
KSVH 170005Z AUTO 36007KT 10SM CLR 13/02 A3020 RMK AO2 T01280019
KSVH 162345Z AUTO 01006KT 10SM CLR 13/02 A3020 RMK AO2 T01320018
KSVH 162325Z AUTO 02006KT 10SM CLR 14/02 A3019 RMK AO2 T01350020
KSVH 162305Z AUTO 02006KT 10SM CLR 14/02 A3018 RMK AO2 T01390021
KSVH 162245Z AUTO 01007KT 10SM CLR 15/02 A3016 RMK AO2 T01460016
KSVH 162225Z AUTO 02009G16KT 10SM CLR 15/01 A3015 RMK AO2 T01540012
KSVH 162205Z AUTO 02008KT 10SM CLR 16/01 A3014 RMK AO2 T01610014
KSVH 162145Z AUTO 01007G14KT 10SM CLR 17/01 A3013 RMK AO2 T01660010
KSVH 162125Z AUTO 35011G14KT 10SM CLR 17/01 A3012 RMK AO2 T01700011
KSVH 162105Z AUTO 36010G18KT 10SM CLR 17/01 A3012 RMK AO2 T01710013
KSVH 162045Z AUTO 35011KT 10SM CLR 17/02 A3012 RMK AO2 T01740022
KSVH 162025Z AUTO 36014G20KT 10SM CLR 18/02 A3011 RMK AO2 T01750016
KSVH 162005Z AUTO 34009G17KT 10SM CLR 18/02 A3011 RMK AO2 T01760021
KSVH 161945Z AUTO 01012G18KT 10SM CLR 18/03 A3011 RMK AO2 T01760027
KSVH 161925Z AUTO 01010G16KT 10SM CLR 18/03 A3011 RMK AO2 T01780031
KSVH 161905Z AUTO 01007KT 10SM CLR 19/04 A3011 RMK AO2 T01850041
KSVH 161845Z AUTO 34008G14KT 10SM CLR 18/04 A3011 RMK AO2 T01780038
KSVH 161825Z AUTO 02011G14KT 310V040 10SM CLR 18/04 A3011 RMK AO2 T01800039
KSVH 161805Z AUTO 33011KT 10SM CLR 17/04 A3011 RMK AO2 T01710037
KSVH 161745Z AUTO 36011G14KT 10SM CLR 17/05 A3012 RMK AO2 T01650047
KSVH 161725Z AUTO 33008G14KT 10SM CLR 17/05 A3012 RMK AO2 T01680052
KSVH 161705Z AUTO 34011G15KT 10SM CLR 17/06 A3012 RMK AO2 T01710056
KSVH 161645Z AUTO 35011G15KT 10SM CLR 18/06 A3012 RMK AO2 T01790056
KSVH 161625Z AUTO 36008KT 10SM CLR 18/06 A3012 RMK AO2 T01790059
KSVH 161605Z AUTO 33008KT 10SM CLR 17/07 A3012 RMK AO2 T01740069
KSVH 161545Z AUTO 36009KT 10SM CLR 17/06 A3011 RMK AO2 T01650062
KSVH 161525Z AUTO 35009G16KT 10SM CLR 17/08 A3010 RMK AO2 T01650078
KSVH 161505Z AUTO 35008G14KT 10SM SCT024 16/09 A3010 RMK AO2 T01600091
KSVH 161445Z AUTO 02009KT 10SM CLR 15/13 A3010 RMK AO2 T01540132
KSVH 161425Z AUTO 02006G15KT 10SM CLR 15/13 A3009 RMK AO2 T01470131
KSVH 161405Z AUTO 02011G15KT 10SM SCT039 15/14 A3009 RMK AO2 T01520136
KSVH 161345Z AUTO 03009KT 10SM BKN037 15/13 A3008 RMK AO2 T01450128
KSVH 161325Z AUTO 04007KT 10SM SCT011 OVC037 15/13 A3009 RMK AO2 T01450130
KSVH 161305Z AUTO 05008KT 10SM SCT008 BKN013 OVC037 15/13 A3008 RMK AO2 T01500134
KSVH 161245Z AUTO 05007KT 10SM BKN008 BKN013 OVC033 16/15 A3006 RMK AO2 P0005 T01610145
KSVH 161225Z AUTO 01006KT 7SM -RA BKN008 BKN016 OVC033 16/15 A3006 RMK AO2 P0004 T01620146
KSVH 161205Z AUTO 03004KT 10SM -RA SCT013 BKN033 OVC120 17/15 A3004 RMK AO2 P0001 T01650148
KSVH 161145Z AUTO 02004KT 10SM -RA SCT019 BKN031 BKN040 17/15 A3004 RMK AO2 P0006 T01670151
KSVH 161125Z AUTO 36003KT 7SM RA SCT019 BKN032 OVC095 17/16 A3004 RMK AO2 P0004 T01710155
KSVH 161105Z AUTO 00000KT 7SM RA SCT011 SCT016 OVC095 17/16 A3002 RMK AO2 P0001 T01730157
KSVH 161045Z AUTO 34006KT 10SM -RA SCT011 BKN055 OVC085 18/17 A3001 RMK AO2 T01820166
KSVH 161025Z AUTO 02007KT 10SM SCT042 SCT065 OVC085 19/17 A2999 RMK AO2 T01880171
KSVH 161005Z AUTO 04004KT 10SM -RA SCT038 BKN045 OVC060 19/18 A2999 RMK AO2 T01910175
KSVH 160945Z AUTO 30007KT 10SM OVC045 19/18 A3000 RMK AO2 T01920176
KSVH 160925Z AUTO 29006KT 7SM BKN047 BKN065 OVC100 19/18 A2999 RMK AO2 T01920176
KSVH 160905Z AUTO 26004KT 7SM BKN110 19/18 A2999 RMK AO2 T01940177
KSVH 160845Z AUTO 25003KT 7SM SCT110 19/18 A2998 RMK AO2 T01940177
KSVH 160825Z AUTO 00000KT 7SM SCT005 SCT055 BKN110 20/18 A2998 RMK AO2 T01950178
KSVH 160805Z AUTO 00000KT 7SM BKN005 20/18 A2998 RMK AO2 T01950180
KSVH 160745Z AUTO 00000KT 7SM SCT007 20/18 A2998 RMK AO2 T01960180
KSVH 160725Z AUTO 00000KT 10SM BKN007 BKN011 20/18 A2998 RMK AO2 T01990182
KSVH 160705Z AUTO 00000KT 10SM BKN009 BKN090 20/18 A2999 RMK AO2 T02000183
KSVH 160645Z AUTO 25004KT 10SM SCT009 SCT080 20/19 A2999 RMK AO2 T02010185
KSVH 160625Z AUTO 24004KT 10SM OVC009 20/19 A2999 RMK AO2 T02020186
KSVH 160605Z AUTO 24003KT 10SM BKN011 OVC100 20/19 A2999 RMK AO2 T02020185
KSVH 160545Z AUTO 00000KT 10SM SCT011 BKN100 20/19 A2999 RMK AO2 T02000185
KSVH 160525Z AUTO 21004KT 10SM BKN110 20/18 A2999 RMK AO2 T02000184
KSVH 160505Z AUTO 22004KT 10SM BKN012 BKN110 20/18 A3000 RMK AO2 T02000183
KSVH 160445Z AUTO 22003KT 10SM SCT012 BKN120 20/18 A3000 RMK AO2 T02000184
KSVH 160425Z AUTO 20003KT 10SM SCT011 BKN120 20/18 A3000 RMK AO2 T02000183
KSVH 160405Z AUTO 20003KT 10SM SCT014 BKN120 20/18 A3001 RMK AO2 T02000183
KSVH 160345Z AUTO 21004KT 10SM BKN014 BKN120 20/19 A3001 RMK AO2 T02010185
KSVH 160325Z AUTO 22003KT 10SM CLR 20/19 A3002 RMK AO2 T02030186
KSVH 160305Z AUTO 21003KT 10SM CLR 20/19 A3003 RMK AO2 T02030187
KSVH 160245Z AUTO 23003KT 10SM SCT120 21/19 A3003 RMK AO2 T02070190
KSVH 160225Z AUTO 22006KT 10SM SCT110 21/19 A3002 RMK AO2 T02080192
KSVH 160205Z AUTO 19007KT 10SM SCT110 21/19 A3000 RMK AO2 T02100192
KSVH 160145Z AUTO 20006KT 10SM CLR 21/19 A3001 RMK AO2 T02100192
KSVH 160125Z AUTO 20003KT 10SM CLR 21/19 A3002 RMK AO2 T02110194
KSVH 160105Z AUTO 20004KT 10SM CLR 21/20 A3002 RMK AO2 T02110195
KSVH 160045Z AUTO 20005KT 10SM CLR 21/20 A3002 RMK AO2 T02120195
KSVH 160025Z AUTO 20004KT 10SM CLR 21/20 A3003 RMK AO2 T02120196
KSVH 160005Z AUTO 22003KT 10SM CLR 22/20 A3003 RMK AO2 T02160200
KSVH 152345Z AUTO 21004KT 10SM CLR 22/20 A3002 RMK AO2 T02180201
KSVH 152325Z AUTO 20003KT 10SM CLR 22/20 A3002 RMK AO2 T02160199
KSVH 152305Z AUTO 00000KT 10SM CLR 23/21 A3001 RMK AO2 T02270210
KSVH 152245Z AUTO 00000KT 10SM CLR 23/21 A3001 RMK AO2 T02320208
KSVH 152225Z AUTO 18003KT 10SM CLR 24/20 A3000 RMK AO2 T02390200
KSVH 152205Z AUTO 19004KT 10SM SCT032 25/19 A3001 RMK AO2 T02470191
KSVH 152145Z AUTO 19005KT 10SM BKN032 25/18 A3002 RMK AO2 T02530184
KSVH 152125Z AUTO 20006KT 10SM CLR 26/18 A3003 RMK AO2 T02550176
KSVH 152105Z AUTO 22007KT 10SM SCT033 26/18 A3003 RMK AO2 T02550178
KSVH 152045Z AUTO 22006KT 10SM BKN033 BKN040 27/18 A3004 RMK AO2 T02650180
KSVH 152025Z AUTO 21007KT 190V250 10SM BKN037 BKN042 27/17 A3004 RMK AO2 T02660169
KSVH 152005Z AUTO 19006KT 10SM SCT035 26/17 A3005 RMK AO2 T02630168